Time;durP1;ratioP1;P1;durP2;ratioP2;P2;SDS_P1;SDS_P2;PMS_P1;PMS_P2;Temp;Humidity;BMP_temperature;BMP_pressure;BME280_temperature;BME280_humidity;BME280_pressure;Samples;Min_cycle;Max_cycle;Signal;HPM_P1;HPM_P2
2024/01/07 00:01:30;;;;;;;12.93;7.03;;;-0.60;99.90;;;;;;4755692;30;20208;-86
2024/01/07 00:03:56;;;;;;;13.43;8.07;;;-0.50;99.90;;;;;;4755921;30;20227;-86
2024/01/07 00:06:21;;;;;;;12.13;7.30;;;-0.50;99.90;;;;;;4755579;30;20232;-88
2024/01/07 00:08:47;;;;;;;14.33;7.33;;;-0.50;99.90;;;;;;4755243;30;20204;-86
2024/01/07 00:11:13;;;;;;;12.83;7.80;;;-0.50;99.90;;;;;;4748154;30;20229;-87
2024/01/07 00:13:40;;;;;;;13.73;6.93;;;-0.60;99.90;;;;;;4737560;30;20303;-87
2024/01/07 00:16:06;;;;;;;11.50;5.73;;;-0.60;99.90;;;;;;4773510;30;20199;-88
2024/01/07 00:18:32;;;;;;;12.53;5.70;;;-0.60;99.90;;;;;;4773296;30;20210;-87
2024/01/07 00:20:58;;;;;;;10.97;5.30;;;-0.60;99.90;;;;;;4772679;30;20204;-87
2024/01/07 00:23:26;;;;;;;8.33;5.93;;;-0.70;99.90;;;;;;4768257;30;20208;-88
2024/01/07 00:25:51;;;;;;;9.87;5.67;;;-0.70;99.90;;;;;;4767556;30;20278;-88
2024/01/07 00:28:17;;;;;;;11.33;5.43;;;-0.70;99.90;;;;;;4740483;30;20288;-88
2024/01/07 00:30:43;;;;;;;10.60;5.40;;;-0.70;99.90;;;;;;4752398;30;20694;-87
2024/01/07 00:33:21;;;;;;;10.93;5.70;;;-0.70;99.90;;;;;;4750318;30;20211;-88
2024/01/07 00:35:47;;;;;;;8.90;4.80;;;-0.70;99.90;;;;;;4740787;30;20702;-88
2024/01/07 00:38:13;;;;;;;10.73;5.23;;;-0.70;99.90;;;;;;4763996;30;20612;-88
2024/01/07 00:40:39;;;;;;;11.47;5.67;;;-0.70;99.90;;;;;;4769186;30;20196;-88
2024/01/07 00:43:04;;;;;;;8.93;5.67;;;-0.70;99.90;;;;;;4740242;30;20250;-86
2024/01/07 00:45:30;;;;;;;9.63;5.37;;;-0.70;99.90;;;;;;4750054;30;20204;-87
2024/01/07 00:47:56;;;;;;;9.83;5.77;;;-0.70;99.90;;;;;;4766194;30;20201;-87
2024/01/07 00:50:22;;;;;;;12.37;6.60;;;-0.70;99.90;;;;;;4756009;30;20224;-87
2024/01/07 00:52:52;;;;;;;8.73;5.37;;;-0.70;99.90;;;;;;4767433;30;20240;-86
2024/01/07 00:55:18;;;;;;;11.00;5.77;;;-0.70;99.90;;;;;;4756036;30;20204;-88
2024/01/07 00:57:43;;;;;;;8.67;5.10;;;-0.70;99.90;;;;;;4760702;30;20211;-87
2024/01/07 01:00:09;;;;;;;9.60;4.97;;;-0.80;99.90;;;;;;4755595;30;20192;-88
2024/01/07 01:02:37;;;;;;;8.37;5.10;;;-0.80;99.90;;;;;;4743858;30;20689;-86
2024/01/07 01:05:03;;;;;;;10.43;5.73;;;-0.90;99.90;;;;;;4765568;30;20197;-86
2024/01/07 01:07:29;;;;;;;10.57;6.20;;;-0.90;99.90;;;;;;4732501;30;20205;-87
2024/01/07 01:09:54;;;;;;;10.73;5.80;;;-0.90;99.90;;;;;;4739890;30;20196;-87
2024/01/07 01:12:30;;;;;;;10.40;6.10;;;-0.90;99.90;;;;;;4745523;30;20271;-87
2024/01/07 01:14:56;;;;;;;11.63;6.33;;;-0.80;99.90;;;;;;4748730;30;20200;-87
2024/01/07 01:17:22;;;;;;;9.70;5.20;;;-0.80;99.90;;;;;;4751537;30;20203;-87
2024/01/07 01:19:48;;;;;;;8.53;5.17;;;-0.90;99.90;;;;;;4741682;30;20211;-87
2024/01/07 01:22:13;;;;;;;8.97;5.17;;;-0.90;99.90;;;;;;4746706;30;20200;-87
2024/01/07 01:24:39;;;;;;;10.97;5.33;;;-1.00;99.90;;;;;;4750010;30;20233;-87
2024/01/07 01:27:05;;;;;;;9.73;5.30;;;-1.10;99.90;;;;;;4754187;30;20197;-88
2024/01/07 01:29:31;;;;;;;9.93;5.97;;;-1.00;99.90;;;;;;4744127;30;20205;-88
2024/01/07 01:31:57;;;;;;;9.70;6.10;;;-1.10;99.90;;;;;;4749771;30;20727;-88
2024/01/07 01:34:22;;;;;;;11.93;5.00;;;-1.10;99.90;;;;;;4747883;30;20189;-88
2024/01/07 01:36:48;;;;;;;8.07;5.33;;;-1.10;99.90;;;;;;4755167;30;20655;-86
2024/01/07 01:39:14;;;;;;;9.70;5.63;;;-1.10;99.90;;;;;;4753825;30;20193;-87
2024/01/07 01:41:40;;;;;;;9.40;5.07;;;-1.00;99.90;;;;;;4746655;30;20249;-86
2024/01/07 01:44:08;;;;;;;6.40;4.57;;;-1.10;99.90;;;;;;4753449;30;20203;-86
2024/01/07 01:46:33;;;;;;;7.77;4.67;;;-1.10;99.90;;;;;;4754083;30;20196;-86
2024/01/07 01:49:00;;;;;;;8.57;4.47;;;-1.10;99.90;;;;;;4753636;30;20196;-86
2024/01/07 01:51:26;;;;;;;8.23;4.90;;;-1.10;99.90;;;;;;4753815;30;20224;-87
2024/01/07 01:53:52;;;;;;;8.50;4.30;;;-1.10;99.90;;;;;;4749083;30;20193;-88
2024/01/07 01:56:20;;;;;;;8.53;4.40;;;-1.10;99.90;;;;;;4753521;30;20223;-86
2024/01/07 01:58:47;;;;;;;8.13;4.60;;;-1.10;99.90;;;;;;4746685;30;20251;-88
2024/01/07 02:01:13;;;;;;;7.93;3.70;;;-1.00;99.90;;;;;;4753735;30;20675;-86
2024/01/07 02:03:46;;;;;;;8.70;4.30;;;-1.00;99.90;;;;;;4754155;30;20192;-86
2024/01/07 02:06:12;;;;;;;6.87;4.10;;;-1.10;99.90;;;;;;4753408;30;20202;-86
2024/01/07 02:08:39;;;;;;;8.43;4.00;;;-1.00;99.90;;;;;;4753416;30;20196;-85
2024/01/07 02:11:18;;;;;;;5.17;3.10;;;-1.00;99.90;;;;;;4753594;30;20566;-87
2024/01/07 02:16:19;;;;;;;6.90;3.37;;;-1.00;99.90;;;;;;4931597;24;20257;-86
2024/01/07 02:18:46;;;;;;;6.10;3.07;;;-0.90;99.90;;;;;;4773691;30;20199;-87
2024/01/07 02:21:14;;;;;;;5.80;3.00;;;-1.00;99.90;;;;;;4774363;30;20240;-89
2024/01/07 02:23:41;;;;;;;5.17;3.37;;;-1.10;99.90;;;;;;4759759;30;20233;-87
2024/01/07 02:26:07;;;;;;;4.77;2.80;;;-1.00;99.90;;;;;;4774053;30;20195;-87
2024/01/07 02:28:34;;;;;;;5.03;2.93;;;-1.10;99.90;;;;;;4767030;30;20209;-88
2024/01/07 02:31:00;;;;;;;4.53;2.90;;;-1.10;99.90;;;;;;4774016;30;20231;-86
2024/01/07 02:33:26;;;;;;;5.33;2.83;;;-1.10;99.90;;;;;;4759412;30;20202;-86
2024/01/07 02:35:52;;;;;;;4.83;3.00;;;-1.20;99.90;;;;;;4789953;29;20529;-87
2024/01/07 02:38:18;;;;;;;6.17;2.73;;;-1.10;99.90;;;;;;4790052;30;20244;-87
2024/01/07 02:40:43;;;;;;;3.63;2.63;;;-1.20;99.90;;;;;;4774110;30;20294;-87
2024/01/07 02:43:09;;;;;;;3.30;2.40;;;-1.10;99.90;;;;;;4774151;30;20203;-86
2024/01/07 02:45:35;;;;;;;4.20;2.10;;;-1.20;99.90;;;;;;4769719;30;20278;-89
2024/01/07 02:48:04;;;;;;;3.97;2.43;;;-1.10;99.90;;;;;;4774706;30;20230;-88
2024/01/07 02:50:31;;;;;;;3.70;2.20;;;-1.20;99.90;;;;;;4766472;30;20435;-92
2024/01/07 02:52:57;;;;;;;3.50;2.10;;;-1.20;99.90;;;;;;4774133;30;20206;-87
2024/01/07 02:55:22;;;;;;;5.57;2.23;;;-1.20;99.90;;;;;;4777700;30;20524;-87
2024/01/07 02:57:53;;;;;;;5.87;2.07;;;-1.20;99.90;;;;;;4779931;30;20194;-88
2024/01/07 03:00:19;;;;;;;2.37;1.80;;;-1.20;99.90;;;;;;4779252;30;20198;-90
2024/01/07 03:02:45;;;;;;;4.27;1.80;;;-1.10;99.90;;;;;;4779676;30;20195;-90
2024/01/07 03:05:11;;;;;;;4.43;1.80;;;-1.10;99.90;;;;;;4779422;30;20642;-93
2024/01/07 03:07:53;;;;;;;2.83;1.73;;;-1.10;99.90;;;;;;4780546;30;20195;-89
2024/01/07 03:10:18;;;;;;;1.73;1.43;;;-1.20;99.90;;;;;;4779514;30;20285;-92
2024/01/07 03:12:46;;;;;;;3.13;1.90;;;-1.20;99.90;;;;;;4774172;30;20343;-94
2024/01/07 03:15:11;;;;;;;3.43;1.80;;;-1.20;99.90;;;;;;4775011;30;20262;-91
2024/01/07 03:17:38;;;;;;;4.93;1.90;;;-1.20;99.90;;;;;;4795360;29;20199;-86
2024/01/07 03:20:04;;;;;;;2.70;1.80;;;-1.20;99.90;;;;;;4773256;30;20536;-87
2024/01/07 03:22:30;;;;;;;2.63;1.60;;;-1.20;99.90;;;;;;4779435;30;20195;-88
2024/01/07 03:24:56;;;;;;;2.80;1.70;;;-1.20;99.90;;;;;;4779431;30;20321;-90
2024/01/07 03:27:22;;;;;;;3.67;1.77;;;-1.20;99.90;;;;;;4777347;30;20212;-89
2024/01/07 03:29:47;;;;;;;3.27;1.77;;;-1.20;99.90;;;;;;4761422;30;20198;-89
2024/01/07 03:32:13;;;;;;;4.07;1.63;;;-1.20;99.90;;;;;;4770915;30;20732;-89
2024/01/07 03:34:40;;;;;;;3.80;2.00;;;-1.20;99.90;;;;;;4779569;30;20268;-90
2024/01/07 03:37:17;;;;;;;3.93;1.73;;;-1.20;99.90;;;;;;4779032;30;20289;-86
2024/01/07 03:39:43;;;;;;;4.10;2.00;;;-1.20;99.90;;;;;;4771872;30;20198;-90
2024/01/07 03:42:11;;;;;;;4.10;2.00;;;-1.20;99.90;;;;;;4779958;30;20644;-92
2024/01/07 03:44:40;;;;;;;3.97;1.70;;;-1.20;99.90;;;;;;4778784;30;20289;-91
2024/01/07 03:47:14;;;;;;;3.10;1.70;;;-1.20;99.90;;;;;;4768405;30;20274;-94
2024/01/07 03:49:39;;;;;;;5.30;1.70;;;-1.20;99.90;;;;;;4762175;30;20203;-91
2024/01/07 03:52:06;;;;;;;3.00;1.87;;;-1.20;99.90;;;;;;4761258;30;20299;-93
2024/01/07 03:54:32;;;;;;;2.60;1.63;;;-1.20;99.90;;;;;;4760931;30;20290;-92
2024/01/07 03:57:08;;;;;;;3.13;1.70;;;-1.20;99.90;;;;;;4777350;30;20274;-91
2024/01/07 03:59:34;;;;;;;3.73;1.63;;;-1.20;99.90;;;;;;4779982;30;20205;-91
2024/01/07 04:01:59;;;;;;;5.90;1.73;;;-1.20;99.90;;;;;;4778410;30;20206;-91
2024/01/07 04:04:25;;;;;;;3.60;1.70;;;-1.20;99.90;;;;;;4778990;30;20205;-92
2024/01/07 04:06:57;;;;;;;2.77;1.80;;;-1.20;99.90;;;;;;4785071;29;20191;-90
2024/01/07 04:09:22;;;;;;;5.30;2.00;;;-1.20;99.90;;;;;;4776200;30;20546;-90
2024/01/07 04:11:49;;;;;;;4.47;2.23;;;-1.20;99.90;;;;;;4776030;30;20219;-91
2024/01/07 04:14:18;;;;;;;2.80;1.90;;;-1.20;99.90;;;;;;4775522;30;20533;-88
2024/01/07 04:16:43;;;;;;;5.00;2.00;;;-1.20;99.90;;;;;;4765287;30;20694;-90
2024/01/07 04:19:09;;;;;;;2.60;1.83;;;-1.20;99.90;;;;;;4758810;30;20196;-93
2024/01/07 04:21:35;;;;;;;3.37;1.87;;;-1.30;99.90;;;;;;4768672;30;20199;-89
2024/01/07 04:24:01;;;;;;;6.17;2.10;;;-1.30;99.90;;;;;;4771109;30;20204;-90
2024/01/07 04:26:27;;;;;;;3.33;1.83;;;-1.40;99.90;;;;;;4765924;30;20195;-90
2024/01/07 04:28:53;;;;;;;2.50;1.60;;;-1.40;99.90;;;;;;4758107;30;20206;-90
2024/01/07 04:31:18;;;;;;;4.10;1.80;;;-1.40;99.90;;;;;;4758487;30;20233;-89
2024/01/07 04:33:44;;;;;;;5.63;2.13;;;-1.40;99.90;;;;;;4757875;30;20230;-92
2024/01/07 04:36:10;;;;;;;3.60;2.10;;;-1.40;99.90;;;;;;4772234;30;20225;-89
2024/01/07 04:38:36;;;;;;;3.73;1.60;;;-1.40;99.90;;;;;;4765901;30;20211;-91
2024/01/07 04:41:02;;;;;;;2.23;1.47;;;-1.50;99.90;;;;;;4753678;30;20540;-91
2024/01/07 04:43:28;;;;;;;2.97;2.00;;;-1.50;99.90;;;;;;4772928;30;20196;-94
2024/01/07 04:45:54;;;;;;;5.67;2.07;;;-1.50;99.90;;;;;;4757787;30;20337;-92
2024/01/07 04:48:19;;;;;;;2.70;1.70;;;-1.50;99.90;;;;;;4761001;30;20704;-91
2024/01/07 04:50:46;;;;;;;2.67;1.80;;;-1.50;99.90;;;;;;4771564;30;20224;-92
2024/01/07 04:53:12;;;;;;;3.87;2.00;;;-1.60;99.90;;;;;;4759275;30;20646;-92
2024/01/07 04:55:38;;;;;;;2.83;2.00;;;-1.60;99.90;;;;;;4775791;30;20203;-92
2024/01/07 04:58:04;;;;;;;3.80;2.13;;;-1.50;99.90;;;;;;4775493;30;20239;-91
2024/01/07 05:00:30;;;;;;;3.53;2.00;;;-1.60;99.90;;;;;;4775226;30;20535;-93
2024/01/07 05:02:56;;;;;;;3.17;2.00;;;-1.60;99.90;;;;;;4775274;30;20203;-91
2024/01/07 05:05:22;;;;;;;3.73;2.33;;;-1.60;99.90;;;;;;4773655;30;20195;-91
2024/01/07 05:07:55;;;;;;;6.23;2.50;;;-1.50;99.90;;;;;;4769595;30;20202;-90
2024/01/07 05:10:21;;;;;;;2.80;1.70;;;-1.60;99.90;;;;;;4767189;30;20200;-92
2024/01/07 05:12:46;;;;;;;2.77;1.97;;;-1.60;99.90;;;;;;4762135;30;20210;-91
2024/01/07 05:15:12;;;;;;;3.93;2.43;;;-1.60;99.90;;;;;;4767704;30;20240;-89
2024/01/07 05:17:44;;;;;;;3.93;2.03;;;-1.70;99.90;;;;;;4771966;30;20200;-90
2024/01/07 05:20:10;;;;;;;3.30;1.90;;;-1.70;99.90;;;;;;4772233;30;20261;-93
2024/01/07 05:22:36;;;;;;;3.67;2.10;;;-1.70;99.90;;;;;;4772399;30;20206;-92
2024/01/07 05:25:02;;;;;;;3.60;2.03;;;-1.70;99.90;;;;;;4772124;30;20206;-93
2024/01/07 05:27:28;;;;;;;3.93;2.00;;;-1.80;99.90;;;;;;4772071;30;20703;-92
2024/01/07 05:29:55;;;;;;;4.50;2.10;;;-1.80;99.90;;;;;;4766587;30;20200;-90
2024/01/07 05:32:21;;;;;;;4.90;2.00;;;-1.80;99.90;;;;;;4748417;30;20602;-92
2024/01/07 05:34:47;;;;;;;2.50;1.90;;;-1.90;99.90;;;;;;4765272;30;20267;-89
2024/01/07 05:37:12;;;;;;;2.37;1.90;;;-1.80;99.90;;;;;;4771292;30;20757;-92
2024/01/07 05:39:38;;;;;;;3.73;2.13;;;-1.90;99.90;;;;;;4770992;30;20542;-92
2024/01/07 05:42:04;;;;;;;2.70;1.80;;;-1.90;99.90;;;;;;4766993;30;20282;-93
2024/01/07 05:44:30;;;;;;;2.73;2.10;;;-1.90;99.90;;;;;;4755347;30;20215;-95
2024/01/07 05:46:56;;;;;;;3.73;2.23;;;-1.90;99.90;;;;;;4768750;30;20542;-94
2024/01/07 05:49:21;;;;;;;4.87;2.67;;;-1.90;99.90;;;;;;4764398;30;20348;-93
2024/01/07 05:51:48;;;;;;;3.87;2.30;;;-1.90;99.90;;;;;;4766245;30;20246;-96
2024/01/07 05:54:13;;;;;;;4.10;2.13;;;-1.90;99.90;;;;;;4771522;30;20191;-96
2024/01/07 05:56:40;;;;;;;5.20;2.10;;;-2.00;99.90;;;;;;4765049;30;20206;-96
2024/01/07 05:59:08;;;;;;;3.47;1.90;;;-2.00;99.90;;;;;;4771765;30;20290;-95
2024/01/07 06:01:34;;;;;;;3.57;2.10;;;-2.00;99.90;;;;;;4771163;30;20203;-92
2024/01/07 06:04:00;;;;;;;6.63;2.47;;;-2.00;99.90;;;;;;4771315;30;20206;-94
2024/01/07 06:06:26;;;;;;;4.70;2.17;;;-2.00;99.90;;;;;;4771131;30;20201;-94
2024/01/07 06:08:53;;;;;;;4.13;1.90;;;-2.00;99.90;;;;;;4758793;30;20214;-93
2024/01/07 06:11:20;;;;;;;8.37;2.30;;;-2.00;99.90;;;;;;4753284;30;20619;-92
2024/01/07 06:13:46;;;;;;;4.50;2.30;;;-2.10;99.90;;;;;;4757938;30;20227;-90
2024/01/07 06:16:12;;;;;;;6.47;2.33;;;-2.00;99.90;;;;;;4766690;30;20310;-93
2024/01/07 06:18:39;;;;;;;7.17;2.53;;;-2.10;99.90;;;;;;4767509;30;20200;-93
2024/01/07 06:21:05;;;;;;;4.07;2.20;;;-2.10;99.90;;;;;;4753372;30;20265;-92
2024/01/07 06:23:33;;;;;;;3.77;2.27;;;-2.10;99.90;;;;;;4753290;30;20201;-93
2024/01/07 06:25:58;;;;;;;2.67;1.90;;;-2.10;99.90;;;;;;4746313;30;20205;-95
2024/01/07 06:28:26;;;;;;;3.73;2.20;;;-2.10;99.90;;;;;;4768917;30;20199;-95
2024/01/07 06:30:53;;;;;;;3.60;2.07;;;-2.00;99.90;;;;;;4759651;30;20226;-95
2024/01/07 06:33:20;;;;;;;3.67;2.23;;;-2.00;99.90;;;;;;4765228;30;20205;-96
2024/01/07 06:35:46;;;;;;;3.63;2.30;;;-2.00;99.90;;;;;;4767685;30;20540;-95
2024/01/07 06:38:12;;;;;;;4.77;2.40;;;-2.00;99.90;;;;;;4761070;30;20287;-96
2024/01/07 06:40:38;;;;;;;5.63;2.10;;;-2.00;99.90;;;;;;4772877;30;20207;-96
2024/01/07 06:43:04;;;;;;;4.33;2.60;;;-2.00;99.90;;;;;;4771846;30;20200;-94
2024/01/07 06:45:29;;;;;;;4.83;2.50;;;-2.00;99.90;;;;;;4764884;30;20204;-93
2024/01/07 06:47:55;;;;;;;5.70;2.70;;;-1.90;99.90;;;;;;4766042;30;20616;-93
2024/01/07 06:50:22;;;;;;;5.33;2.63;;;-1.90;99.90;;;;;;4770756;30;20204;-93
2024/01/07 06:52:48;;;;;;;4.57;2.40;;;-1.90;99.90;;;;;;4772311;30;20207;-95
2024/01/07 06:55:13;;;;;;;4.83;2.40;;;-1.80;99.90;;;;;;4771150;30;20206;-95
2024/01/07 06:57:39;;;;;;;5.57;2.40;;;-1.90;99.90;;;;;;4770811;30;20204;-96
2024/01/07 07:00:12;;;;;;;3.03;2.40;;;-1.80;99.90;;;;;;4770661;30;20227;-96
2024/01/07 07:02:37;;;;;;;5.07;2.73;;;-1.80;99.90;;;;;;4764702;30;20227;-96
2024/01/07 07:05:03;;;;;;;6.10;2.57;;;-1.80;99.90;;;;;;4763139;30;20725;-95
2024/01/07 07:07:29;;;;;;;3.93;2.53;;;-1.80;99.90;;;;;;4774056;30;20795;-94
2024/01/07 07:09:58;;;;;;;4.47;2.40;;;-1.70;99.90;;;;;;4770493;30;20234;-95
2024/01/07 07:12:24;;;;;;;4.17;2.67;;;-1.80;99.90;;;;;;4769284;30;20228;-95
2024/01/07 07:14:50;;;;;;;4.80;2.60;;;-1.70;99.90;;;;;;4762300;30;21114;-95
2024/01/07 07:17:15;;;;;;;4.73;2.30;;;-1.80;99.90;;;;;;4770990;30;20233;-94
2024/01/07 07:19:42;;;;;;;4.07;2.40;;;-1.80;99.90;;;;;;4771122;30;20522;-95
2024/01/07 07:22:08;;;;;;;4.23;2.50;;;-1.80;99.90;;;;;;4764602;30;20249;-95
2024/01/07 07:24:34;;;;;;;4.97;2.30;;;-1.80;99.90;;;;;;4756224;30;20548;-94
2024/01/07 07:27:00;;;;;;;6.83;3.60;;;-1.80;99.90;;;;;;4764943;30;20625;-95
2024/01/07 07:29:25;;;;;;;6.93;2.60;;;-1.80;99.90;;;;;;4769361;30;20199;-95
2024/01/07 07:31:51;;;;;;;4.70;2.63;;;-1.70;99.90;;;;;;4762601;30;20306;-95
2024/01/07 07:34:17;;;;;;;3.67;2.27;;;-1.80;99.90;;;;;;4770404;30;20192;-94
2024/01/07 07:36:44;;;;;;;5.17;2.77;;;-1.80;99.90;;;;;;4771475;30;20271;-95
2024/01/07 07:39:14;;;;;;;4.03;2.27;;;-1.70;99.90;;;;;;4770475;30;20237;-94
2024/01/07 07:41:41;;;;;;;8.60;3.37;;;-1.70;99.90;;;;;;4771128;30;20245;-95
2024/01/07 07:44:07;;;;;;;5.73;2.80;;;-1.70;99.90;;;;;;4773530;30;20648;-95
2024/01/07 07:46:33;;;;;;;5.07;2.70;;;-1.70;99.90;;;;;;4766137;30;20229;-96
2024/01/07 07:49:07;;;;;;;4.57;2.10;;;-1.70;99.90;;;;;;4756007;30;20195;-96
2024/01/07 07:51:33;;;;;;;2.97;2.37;;;-1.60;99.90;;;;;;4762799;30;20227;-96
2024/01/07 07:53:58;;;;;;;4.77;2.20;;;-1.60;99.90;;;;;;4768092;30;20200;-96
2024/01/07 07:56:24;;;;;;;3.53;2.20;;;-1.60;99.90;;;;;;4757142;30;20655;-96
2024/01/07 07:58:50;;;;;;;7.63;2.57;;;-1.60;99.90;;;;;;4760804;30;20222;-96
2024/01/07 08:01:18;;;;;;;4.03;2.50;;;-1.50;99.90;;;;;;4765683;30;20234;-96
2024/01/07 08:03:44;;;;;;;3.97;2.00;;;-1.50;99.90;;;;;;4761348;30;20540;-96
2024/01/07 08:06:09;;;;;;;4.00;2.70;;;-1.50;99.90;;;;;;4773644;30;20211;-96
2024/01/07 08:08:36;;;;;;;4.53;2.87;;;-1.50;99.90;;;;;;4755502;30;20203;-94
2024/01/07 08:11:05;;;;;;;3.10;2.23;;;-1.50;99.90;;;;;;4755420;30;20274;-95
2024/01/07 08:13:31;;;;;;;6.13;2.80;;;-1.40;99.90;;;;;;4773368;30;20203;-96
2024/01/07 08:15:56;;;;;;;3.00;2.20;;;-1.40;99.90;;;;;;4768475;30;20274;-94
2024/01/07 08:18:22;;;;;;;4.90;2.53;;;-1.40;99.90;;;;;;4773112;30;20192;-94
2024/01/07 08:21:04;;;;;;;5.67;2.73;;;-1.40;99.90;;;;;;4773101;30;20196;-93
2024/01/07 08:23:30;;;;;;;3.50;2.20;;;-1.30;99.90;;;;;;4772892;30;20211;-94
2024/01/07 08:25:56;;;;;;;3.40;2.27;;;-1.40;99.90;;;;;;4767534;30;20260;-95
2024/01/07 08:28:22;;;;;;;4.87;3.20;;;-1.40;99.90;;;;;;4756629;30;20205;-95
2024/01/07 08:30:56;;;;;;;9.13;3.23;;;-1.40;99.90;;;;;;4772108;30;20223;-94
2024/01/07 08:33:21;;;;;;;4.00;2.77;;;-1.40;99.90;;;;;;4773173;30;20294;-93
2024/01/07 08:35:47;;;;;;;4.07;2.60;;;-1.40;99.90;;;;;;4772316;30;20282;-93
2024/01/07 08:38:18;;;;;;;5.67;2.10;;;-1.40;99.90;;;;;;4765760;30;20268;-94
2024/01/07 08:40:49;;;;;;;3.20;2.30;;;-1.30;99.90;;;;;;4768565;30;20193;-94
2024/01/07 08:43:14;;;;;;;4.37;2.60;;;-1.30;99.90;;;;;;4770496;30;20543;-94
2024/01/07 08:45:40;;;;;;;3.97;2.23;;;-1.30;99.90;;;;;;4768740;30;20203;-92
2024/01/07 08:48:07;;;;;;;4.97;2.83;;;-1.30;99.90;;;;;;4772850;30;20202;-92
2024/01/07 08:50:38;;;;;;;2.70;1.97;;;-1.30;99.90;;;;;;4772682;30;20188;-93
2024/01/07 08:53:04;;;;;;;3.00;1.80;;;-1.30;99.90;;;;;;4766175;30;20543;-94
2024/01/07 08:55:31;;;;;;;2.67;2.00;;;-1.20;99.90;;;;;;4765699;30;20603;-95
2024/01/07 08:58:00;;;;;;;3.77;2.10;;;-1.20;99.90;;;;;;4772354;30;20229;-93
2024/01/07 09:00:34;;;;;;;2.87;1.80;;;-1.20;99.90;;;;;;4772634;30;20196;-95
2024/01/07 09:03:00;;;;;;;3.10;1.90;;;-1.20;99.90;;;;;;4772359;30;20204;-96
2024/01/07 09:05:26;;;;;;;3.13;2.33;;;-1.10;99.90;;;;;;4770755;30;20550;-96
2024/01/07 09:07:52;;;;;;;3.07;1.70;;;-1.10;99.90;;;;;;4768410;30;20208;-93
2024/01/07 09:10:26;;;;;;;2.77;1.60;;;-1.20;99.90;;;;;;4767567;30;20195;-95
2024/01/07 09:12:53;;;;;;;4.70;1.73;;;-1.20;99.90;;;;;;4773290;30;20704;-94
2024/01/07 09:15:20;;;;;;;4.73;1.60;;;-1.20;99.90;;;;;;4768077;30;20387;-92
2024/01/07 09:17:46;;;;;;;3.53;1.60;;;-1.10;99.90;;;;;;4771711;30;20200;-94
2024/01/07 09:20:13;;;;;;;2.53;1.90;;;-1.10;99.90;;;;;;4765091;30;20204;-94
2024/01/07 09:22:39;;;;;;;3.87;2.00;;;-1.00;99.90;;;;;;4772403;30;20293;-96
2024/01/07 09:25:06;;;;;;;2.90;1.97;;;-0.90;99.90;;;;;;4765856;30;20196;-95
2024/01/07 09:27:33;;;;;;;3.73;2.20;;;-0.90;99.90;;;;;;4772097;30;20231;-96
2024/01/07 09:29:59;;;;;;;3.97;1.97;;;-0.90;99.90;;;;;;4772104;30;20192;-95
2024/01/07 09:32:25;;;;;;;2.27;1.60;;;-0.90;99.90;;;;;;4762263;30;20231;-95
2024/01/07 09:34:51;;;;;;;2.77;1.77;;;-0.90;99.90;;;;;;4754412;30;20250;-95
2024/01/07 09:37:17;;;;;;;4.93;1.53;;;-0.90;99.90;;;;;;4762134;30;20195;-96
2024/01/07 09:39:44;;;;;;;2.13;1.53;;;-1.00;99.90;;;;;;4773117;30;20511;-96
2024/01/07 09:42:19;;;;;;;3.47;1.80;;;-1.00;99.90;;;;;;4772039;30;20257;-96
2024/01/07 09:44:46;;;;;;;3.07;1.63;;;-0.90;99.90;;;;;;4770980;30;20253;-96
2024/01/07 09:47:15;;;;;;;4.40;1.90;;;-0.80;99.90;;;;;;4768921;30;20528;-95
2024/01/07 09:49:42;;;;;;;6.17;2.60;;;-0.90;99.90;;;;;;4772131;30;20231;-94
2024/01/07 09:52:12;;;;;;;6.67;3.03;;;-0.90;99.90;;;;;;4771861;30;20223;-96
2024/01/07 09:54:39;;;;;;;5.60;2.87;;;-0.80;99.90;;;;;;4768419;30;20197;-95
2024/01/07 09:57:06;;;;;;;4.07;2.43;;;-0.80;99.90;;;;;;4754492;30;20204;-94
2024/01/07 09:59:33;;;;;;;3.90;2.33;;;-0.80;99.90;;;;;;4761522;30;20264;-94
2024/01/07 10:02:02;;;;;;;5.87;3.10;;;-0.80;99.90;;;;;;4754436;30;20200;-93
2024/01/07 10:04:28;;;;;;;2.27;1.47;;;-0.90;99.90;;;;;;4770046;30;20640;-93
2024/01/07 10:06:55;;;;;;;2.53;1.60;;;-0.80;99.90;;;;;;4764330;30;20203;-95
2024/01/07 10:09:27;;;;;;;3.87;2.63;;;-0.80;99.90;;;;;;4763361;30;20196;-94
2024/01/07 10:11:54;;;;;;;2.87;1.80;;;-0.80;99.90;;;;;;4768001;30;20226;-95
2024/01/07 10:14:24;;;;;;;3.27;1.40;;;-0.70;99.90;;;;;;4756652;30;20283;-96
2024/01/07 10:16:53;;;;;;;4.17;2.13;;;-0.70;99.90;;;;;;4758764;30;20247;-96
2024/01/07 10:19:23;;;;;;;5.13;2.03;;;-0.60;99.90;;;;;;4756983;30;20220;-95
2024/01/07 10:22:05;;;;;;;2.57;1.53;;;-0.60;99.90;;;;;;4755356;30;20533;-96
2024/01/07 10:24:41;;;;;;;3.47;1.93;;;-0.60;99.90;;;;;;4754849;30;20200;-96
2024/01/07 10:27:08;;;;;;;5.37;2.43;;;-0.50;99.90;;;;;;4755545;30;20291;-96
2024/01/07 10:29:34;;;;;;;8.90;4.83;;;-0.40;99.90;;;;;;4757430;30;20199;-96
2024/01/07 10:32:06;;;;;;;7.33;3.93;;;-0.40;99.90;;;;;;4758782;30;20228;-96
2024/01/07 10:34:33;;;;;;;12.17;6.57;;;-0.40;99.90;;;;;;4753671;30;20235;-96
2024/01/07 10:37:00;;;;;;;5.17;2.77;;;-0.40;99.90;;;;;;4754860;30;20205;-96
2024/01/07 10:39:26;;;;;;;3.20;2.57;;;-0.50;99.90;;;;;;4760944;30;20204;-96
2024/01/07 10:41:59;;;;;;;3.20;1.90;;;-0.50;99.90;;;;;;4753635;30;20249;-96
2024/01/07 10:44:30;;;;;;;3.00;2.00;;;-0.50;99.90;;;;;;4753727;30;20204;-95
2024/01/07 10:46:56;;;;;;;6.13;3.20;;;-0.50;99.90;;;;;;4753350;30;20713;-95
2024/01/07 10:49:24;;;;;;;2.53;2.07;;;-0.40;99.90;;;;;;4760722;30;20201;-96
2024/01/07 10:52:13;;;;;;;4.23;1.80;;;-0.30;99.90;;;;;;4753239;30;20315;-95
2024/01/07 10:54:42;;;;;;;3.33;2.27;;;-0.40;99.90;;;;;;4753241;30;20215;-95
2024/01/07 10:57:12;;;;;;;3.93;2.07;;;-0.40;99.90;;;;;;4760209;30;20549;-95
2024/01/07 10:59:40;;;;;;;2.70;1.80;;;-0.50;99.90;;;;;;4746409;30;20197;-96
2024/01/07 11:02:08;;;;;;;3.53;2.00;;;-0.40;99.90;;;;;;4753124;30;20196;-95
2024/01/07 11:04:51;;;;;;;4.00;3.07;;;-0.30;99.90;;;;;;4753001;30;20617;-95
2024/01/07 11:07:49;;;;;;;5.37;3.00;;;-0.30;99.90;;;;;;4761213;30;20696;-96
2024/01/07 11:10:20;;;;;;;3.97;2.43;;;-0.20;99.90;;;;;;4755458;30;20188;-96
2024/01/07 11:12:58;;;;;;;6.37;3.57;;;-0.20;99.90;;;;;;4757537;30;20223;-95
2024/01/07 11:15:49;;;;;;;4.00;2.77;;;-0.10;99.90;;;;;;4754903;30;20236;-94
2024/01/07 11:18:23;;;;;;;4.70;2.90;;;-0.20;99.90;;;;;;4760953;30;20193;-94
2024/01/07 11:20:51;;;;;;;4.73;3.20;;;-0.20;99.90;;;;;;4758663;30;20192;-96
2024/01/07 11:23:30;;;;;;;4.70;2.83;;;-0.20;99.90;;;;;;4764125;30;20189;-94
2024/01/07 11:25:58;;;;;;;4.83;3.10;;;-0.20;99.90;;;;;;4757117;30;20197;-94
2024/01/07 11:28:45;;;;;;;4.60;2.73;;;-0.20;99.90;;;;;;4764830;30;20229;-94
2024/01/07 11:31:15;;;;;;;5.80;3.20;;;-0.30;99.90;;;;;;4771137;30;20323;-94
2024/01/07 11:33:46;;;;;;;4.93;3.37;;;-0.30;99.90;;;;;;4749015;30;20273;-93
2024/01/07 11:36:16;;;;;;;5.67;2.80;;;-0.20;99.90;;;;;;4749106;30;20207;-95
2024/01/07 11:38:48;;;;;;;4.07;3.03;;;-0.20;99.90;;;;;;4764009;30;20203;-95
2024/01/07 11:41:33;;;;;;;4.40;2.97;;;-0.10;99.90;;;;;;4766552;30;20193;-94
2024/01/07 11:44:00;;;;;;;3.87;2.73;;;-0.20;99.90;;;;;;4758319;30;20193;-94
2024/01/07 11:46:26;;;;;;;4.73;3.13;;;-0.20;99.90;;;;;;4769762;30;20210;-94
2024/01/07 11:48:59;;;;;;;4.13;2.77;;;-0.30;99.90;;;;;;4756594;30;20203;-95
2024/01/07 11:51:31;;;;;;;6.67;2.33;;;-0.20;99.90;;;;;;4765347;30;20571;-93
2024/01/07 11:53:58;;;;;;;4.13;2.77;;;-0.10;99.90;;;;;;4766724;30;20648;-95
2024/01/07 11:56:27;;;;;;;5.20;2.70;;;-0.20;99.90;;;;;;4762513;30;20192;-95
2024/01/07 11:58:53;;;;;;;4.43;3.07;;;-0.20;99.90;;;;;;4756077;30;20206;-95
2024/01/07 12:01:21;;;;;;;4.50;2.60;;;-0.30;99.90;;;;;;4755432;30;20195;-95
2024/01/07 12:03:47;;;;;;;3.63;2.60;;;-0.20;99.90;;;;;;4756087;30;20254;-95
2024/01/07 12:06:14;;;;;;;4.70;2.97;;;-0.10;99.90;;;;;;4755915;30;20200;-94
2024/01/07 12:08:43;;;;;;;4.17;2.57;;;0.00;99.90;;;;;;4755139;30;20201;-94
2024/01/07 12:11:12;;;;;;;5.50;3.00;;;0.00;99.90;;;;;;4762672;30;20220;-94
2024/01/07 12:13:39;;;;;;;4.13;2.80;;;0.00;99.90;;;;;;4762974;30;20200;-95
2024/01/07 12:16:05;;;;;;;8.73;3.30;;;-0.10;99.90;;;;;;4768932;30;20233;-94
2024/01/07 12:18:31;;;;;;;2.67;2.23;;;-0.10;99.90;;;;;;4758681;30;20208;-95
2024/01/07 12:20:59;;;;;;;3.57;2.30;;;-0.10;99.90;;;;;;4758384;30;20196;-95
2024/01/07 12:23:26;;;;;;;3.33;2.30;;;-0.10;99.90;;;;;;4759947;30;20620;-94
2024/01/07 12:25:53;;;;;;;6.03;3.03;;;0.00;99.90;;;;;;4767776;30;20199;-92
2024/01/07 12:28:19;;;;;;;5.17;2.60;;;-0.10;99.90;;;;;;4773522;30;20248;-94
2024/01/07 12:30:48;;;;;;;4.03;2.30;;;-0.20;99.90;;;;;;4759832;30;20193;-93
2024/01/07 12:33:21;;;;;;;5.57;2.67;;;-0.20;99.90;;;;;;4760135;30;20195;-93
2024/01/07 12:35:47;;;;;;;2.87;2.03;;;-0.10;99.90;;;;;;4758214;30;20197;-94
2024/01/07 12:38:14;;;;;;;2.50;2.00;;;-0.10;99.90;;;;;;4765650;30;20199;-94
2024/01/07 12:40:40;;;;;;;4.93;2.20;;;-0.20;99.90;;;;;;4757973;30;20207;-96
2024/01/07 12:43:06;;;;;;;4.83;2.03;;;0.00;99.90;;;;;;4765163;30;20202;-94
2024/01/07 12:45:33;;;;;;;3.07;2.00;;;-0.10;99.90;;;;;;4768016;30;20248;-94
2024/01/07 12:48:02;;;;;;;3.07;1.90;;;-0.10;99.90;;;;;;4768322;30;20195;-94
2024/01/07 12:50:30;;;;;;;2.93;1.70;;;0.00;99.90;;;;;;4758918;30;20183;-94